createdAt,value
2023-03-06T00:00:59.565Z,97.64
2023-03-06T00:03:28.232Z,97.35
2023-03-06T00:05:57.548Z,97.98
2023-03-06T00:08:24.946Z,97.73
2023-03-06T00:10:51.722Z,97.91
2023-03-06T00:13:21.141Z,98.25
2023-03-06T00:15:48.885Z,97.95
2023-03-06T00:18:15.754Z,98.11
2023-03-06T00:20:43.074Z,98.04
2023-03-06T00:23:10.475Z,98.30
2023-03-06T00:25:38.913Z,98.35
2023-03-06T00:28:06.304Z,97.87
2023-03-06T00:30:33.448Z,97.85
2023-03-06T00:33:00.217Z,97.91
2023-03-06T00:35:27.047Z,97.83
2023-03-06T00:37:53.986Z,97.64
2023-03-06T00:40:21.280Z,97.57
2023-03-06T00:42:48.376Z,97.86
2023-03-06T00:45:15.288Z,97.83
2023-03-06T00:47:42.154Z,97.55
2023-03-06T00:50:09.995Z,97.43
2023-03-06T00:52:36.893Z,97.69
2023-03-06T00:55:04.285Z,97.89
2023-03-06T00:57:31.071Z,97.84
2023-03-06T00:59:57.843Z,97.81
2023-03-06T01:02:24.768Z,98.15
2023-03-06T01:04:51.579Z,97.99
2023-03-06T01:07:18.461Z,98.38
2023-03-06T01:09:45.308Z,98.64
2023-03-06T01:12:12.175Z,98.68
2023-03-06T01:14:39.018Z,98.52
2023-03-06T01:17:05.943Z,98.62
2023-03-06T01:19:32.809Z,98.16
2023-03-06T01:21:59.575Z,98.07
2023-03-06T01:24:26.325Z,97.91
2023-03-06T01:26:53.079Z,97.88
2023-03-06T01:29:20.334Z,97.69
2023-03-06T01:31:47.173Z,98.31
2023-03-06T01:34:13.991Z,98.74
2023-03-06T01:36:40.872Z,98.38
2023-03-06T01:39:07.687Z,98.38
2023-03-06T01:41:34.499Z,98.41
2023-03-06T01:44:01.943Z,98.28
2023-03-06T01:46:28.613Z,98.13
2023-03-06T01:48:59.491Z,97.97
2023-03-06T01:51:38.886Z,97.75
2023-03-06T01:54:09.484Z,98.00
2023-03-06T01:56:36.320Z,97.76
2023-03-06T01:59:03.127Z,97.63
2023-03-06T02:01:31.134Z,97.79
2023-03-06T02:03:57.929Z,98.07
2023-03-06T02:06:24.714Z,97.79
2023-03-06T02:08:51.880Z,97.80
2023-03-06T02:11:31.334Z,97.84
2023-03-06T02:13:58.115Z,98.30
2023-03-06T02:16:26.896Z,97.99
2023-03-06T02:18:53.757Z,97.79
2023-03-06T02:21:25.631Z,98.20
2023-03-06T02:23:56.211Z,98.51
2023-03-06T02:26:23.008Z,98.72
2023-03-06T02:28:49.798Z,98.52
2023-03-06T02:31:28.493Z,98.28
2023-03-06T02:34:03.253Z,98.03
2023-03-06T02:36:30.020Z,98.48
2023-03-06T02:38:56.801Z,98.22
2023-03-06T02:41:23.635Z,98.75
2023-03-06T02:43:50.384Z,98.82
2023-03-06T02:46:17.257Z,98.62
2023-03-06T02:48:44.080Z,98.69
2023-03-06T02:51:10.831Z,98.56
2023-03-06T02:53:37.616Z,98.61
2023-03-06T02:56:04.529Z,98.45
2023-03-06T02:58:31.310Z,98.50
2023-03-06T03:00:58.117Z,98.67
2023-03-06T03:03:24.852Z,98.45
2023-03-06T03:05:51.613Z,98.88
2023-03-06T03:08:18.438Z,98.48
2023-03-06T03:10:45.224Z,98.62
2023-03-06T03:13:11.984Z,98.51
2023-03-06T03:15:38.893Z,98.37
2023-03-06T03:18:05.697Z,98.77
2023-03-06T03:20:32.476Z,98.69
2023-03-06T03:22:59.260Z,98.74
2023-03-06T03:25:26.193Z,98.59
2023-03-06T03:27:53.003Z,98.29
2023-03-06T03:30:19.938Z,98.58
2023-03-06T03:32:46.781Z,98.73
2023-03-06T03:35:13.580Z,98.78
2023-03-06T03:37:40.374Z,98.42
2023-03-06T03:40:08.046Z,99.09
2023-03-06T03:42:34.901Z,98.49
2023-03-06T03:45:01.802Z,98.45
2023-03-06T03:47:28.589Z,98.34
2023-03-06T03:49:55.394Z,98.69
2023-03-06T03:52:22.135Z,97.84
2023-03-06T03:54:48.921Z,98.24
2023-03-06T03:57:15.779Z,98.33
2023-03-06T03:59:42.568Z,98.21
2023-03-06T04:02:09.462Z,98.64
2023-03-06T04:04:36.325Z,98.64
2023-03-06T04:07:04.496Z,98.76
2023-03-06T04:09:31.361Z,98.49
2023-03-06T04:11:58.294Z,98.93
2023-03-06T04:14:25.071Z,99.00
2023-03-06T04:16:51.893Z,98.60
2023-03-06T04:19:18.747Z,98.75
2023-03-06T04:21:45.577Z,98.85
2023-03-06T04:24:12.420Z,98.78
2023-03-06T04:26:39.230Z,98.99
2023-03-06T04:29:06.027Z,98.94
2023-03-06T04:31:32.862Z,98.88
2023-03-06T04:33:59.688Z,99.07
2023-03-06T04:36:31.584Z,99.05
2023-03-06T04:38:58.605Z,98.94
2023-03-06T04:41:25.373Z,99.35
2023-03-06T04:43:52.387Z,99.20
2023-03-06T04:46:19.163Z,98.79
2023-03-06T04:48:45.961Z,99.58
2023-03-06T04:51:13.285Z,98.90
2023-03-06T04:53:40.108Z,99.50
2023-03-06T04:56:07.211Z,99.37
2023-03-06T04:58:34.002Z,99.44
2023-03-06T05:01:00.948Z,99.13
2023-03-06T05:03:27.914Z,99.04
2023-03-06T05:05:54.707Z,99.42
2023-03-06T05:08:21.547Z,99.54
2023-03-06T05:10:56.728Z,99.26
2023-03-06T05:13:23.641Z,99.27
2023-03-06T05:15:50.410Z,99.09
2023-03-06T05:18:17.326Z,99.13
2023-03-06T05:20:44.117Z,99.16
2023-03-06T05:23:10.964Z,99.18
2023-03-06T05:25:40.904Z,99.61
2023-03-06T05:28:08.132Z,99.47
2023-03-06T05:30:35.010Z,99.30
2023-03-06T05:33:01.775Z,99.42
2023-03-06T05:35:28.675Z,99.85
2023-03-06T05:37:55.427Z,99.70
2023-03-06T05:40:22.300Z,99.79
2023-03-06T05:42:49.093Z,99.60
2023-03-06T05:45:15.896Z,99.75
2023-03-06T05:47:42.669Z,99.70
2023-03-06T05:50:10.639Z,99.45
2023-03-06T05:52:39.747Z,99.33
2023-03-06T05:55:07.574Z,99.17
2023-03-06T05:57:34.358Z,99.11
2023-03-06T06:00:01.222Z,99.14
2023-03-06T06:02:28.090Z,98.84
2023-03-06T06:04:54.880Z,98.86
2023-03-06T06:07:21.809Z,98.70
2023-03-06T06:09:48.575Z,97.91
2023-03-06T06:12:15.375Z,98.26
2023-03-06T06:14:42.234Z,97.77
2023-03-06T06:17:09.099Z,97.39
2023-03-06T06:19:35.987Z,97.10
2023-03-06T06:22:03.918Z,96.83
2023-03-06T06:24:31.016Z,96.08
2023-03-06T06:26:58.237Z,95.22
2023-03-06T06:29:25.406Z,94.34
2023-03-06T06:31:52.408Z,92.96
2023-03-06T06:34:19.365Z,92.11
2023-03-06T06:36:46.253Z,91.15
2023-03-06T06:39:15.608Z,90.46
2023-03-06T06:41:59.325Z,89.95
2023-03-06T06:44:29.215Z,89.87
2023-03-06T06:49:42.741Z,89.83
2023-03-06T06:52:10.615Z,89.44
2023-03-06T06:54:37.408Z,88.23
2023-03-06T06:57:04.244Z,87.66
2023-03-06T06:59:31.156Z,86.92
2023-03-06T07:01:58.002Z,86.24
2023-03-06T07:04:24.813Z,85.60
2023-03-06T07:06:51.591Z,84.69
2023-03-06T07:09:18.412Z,83.77
2023-03-06T07:11:45.179Z,83.46
2023-03-06T07:14:11.968Z,82.21
2023-03-06T07:16:38.830Z,81.78
2023-03-06T07:19:06.056Z,80.66
2023-03-06T07:21:32.830Z,80.90
2023-03-06T07:23:59.733Z,78.31
2023-03-06T07:26:27.161Z,77.40
2023-03-06T07:28:54.437Z,76.60
2023-03-06T07:31:22.466Z,76.79
2023-03-06T07:33:50.180Z,74.53
2023-03-06T07:36:17.151Z,74.69
2023-03-06T07:38:43.963Z,74.48
2023-03-06T07:41:13.679Z,72.83
2023-03-06T07:43:41.336Z,72.51
2023-03-06T07:46:08.717Z,72.53
2023-03-06T07:48:36.440Z,71.61
2023-03-06T07:51:07.984Z,70.55
2023-03-06T07:53:35.003Z,69.37
2023-03-06T07:56:01.810Z,68.57
2023-03-06T07:58:28.686Z,67.41
2023-03-06T08:00:55.424Z,67.07
2023-03-06T08:03:22.224Z,65.83
2023-03-06T08:05:49.022Z,64.85
2023-03-06T08:08:15.804Z,61.66
2023-03-06T08:10:47.958Z,59.94
2023-03-06T08:13:14.769Z,57.67
2023-03-06T08:15:41.555Z,57.30
2023-03-06T08:18:08.331Z,55.49
2023-03-06T08:20:35.063Z,54.82
2023-03-06T08:23:01.829Z,54.51
2023-03-06T08:25:29.536Z,53.34
2023-03-06T08:27:56.299Z,53.08
2023-03-06T08:30:23.182Z,51.96
2023-03-06T08:32:50.070Z,50.91
2023-03-06T08:35:16.861Z,49.64
2023-03-06T08:37:43.685Z,48.72
2023-03-06T08:40:11.286Z,48.89
2023-03-06T08:42:38.012Z,48.09
2023-03-06T08:45:06.133Z,46.35
2023-03-06T08:47:34.962Z,47.16
2023-03-06T08:50:01.687Z,46.94
2023-03-06T08:52:28.477Z,45.46
2023-03-06T08:54:55.225Z,45.36
2023-03-06T08:57:21.975Z,44.91
2023-03-06T08:59:48.752Z,44.17
2023-03-06T09:02:15.675Z,44.65
2023-03-06T09:04:42.473Z,48.43
2023-03-06T09:07:09.256Z,50.53
2023-03-06T09:09:36.158Z,53.31
2023-03-06T09:12:03.033Z,53.89
2023-03-06T09:14:30.893Z,51.92
2023-03-06T09:16:57.878Z,49.87
2023-03-06T09:19:24.728Z,48.79
2023-03-06T09:21:51.546Z,46.74
2023-03-06T09:24:18.364Z,45.82
2023-03-06T09:26:47.181Z,43.74
2023-03-06T09:29:16.531Z,44.31
2023-03-06T09:31:43.959Z,42.12
2023-03-06T09:34:10.738Z,40.26
2023-03-06T09:36:53.434Z,40.05
2023-03-06T09:39:22.263Z,41.19
2023-03-06T09:41:49.619Z,41.38
2023-03-06T09:44:26.102Z,43.15
2023-03-06T09:46:58.602Z,46.64
2023-03-06T09:49:44.843Z,47.90
2023-03-06T09:52:46.932Z,45.59
2023-03-06T09:55:17.011Z,43.29
2023-03-06T09:57:58.131Z,41.02
2023-03-06T10:00:30.992Z,41.72
2023-03-06T10:03:01.216Z,41.61
2023-03-06T10:05:33.584Z,40.06
2023-03-06T10:08:12.649Z,37.74
2023-03-06T10:11:02.274Z,35.89
2023-03-06T10:13:42.555Z,34.79
2023-03-06T10:16:24.096Z,35.84
2023-03-06T10:18:51.057Z,35.75
2023-03-06T10:21:31.455Z,38.19
2023-03-06T10:24:15.790Z,41.22
2023-03-06T10:26:45.312Z,44.49
2023-03-06T10:29:33.772Z,45.13
2023-03-06T10:32:23.275Z,46.33
2023-03-06T10:34:50.104Z,48.51
2023-03-06T10:37:21.696Z,48.63
2023-03-06T10:39:52.654Z,45.95
2023-03-06T10:42:19.449Z,43.23
2023-03-06T10:44:46.235Z,40.40
2023-03-06T10:47:35.186Z,37.08
2023-03-06T10:50:03.223Z,36.77
2023-03-06T10:52:31.983Z,38.26
2023-03-06T10:55:30.557Z,39.30
2023-03-06T10:57:57.452Z,39.41
2023-03-06T11:00:36.155Z,37.76
2023-03-06T11:03:22.594Z,36.72
2023-03-06T11:06:06.657Z,37.83
2023-03-06T11:08:33.654Z,39.59
2023-03-06T11:11:03.230Z,42.05
2023-03-06T11:13:32.440Z,43.35
2023-03-06T11:16:19.564Z,44.89
2023-03-06T11:19:00.657Z,45.55
2023-03-06T11:21:32.209Z,48.22
2023-03-06T11:24:09.251Z,50.08
2023-03-06T11:26:45.850Z,51.16
2023-03-06T11:29:36.925Z,53.42
2023-03-06T11:32:33.372Z,54.91
2023-03-06T11:35:16.405Z,55.64
2023-03-06T11:37:46.847Z,55.19
2023-03-06T11:40:33.836Z,56.90
2023-03-06T11:43:38.091Z,57.26
2023-03-06T11:46:10.569Z,57.53
2023-03-06T11:48:44.216Z,58.63
2023-03-06T11:51:30.887Z,59.78
2023-03-06T11:53:58.974Z,60.57
2023-03-06T11:56:47.369Z,60.74
2023-03-06T11:59:42.032Z,61.13
2023-03-06T12:02:39.706Z,60.61
2023-03-06T12:05:25.060Z,61.63
2023-03-06T12:08:09.848Z,61.92
2023-03-06T12:10:42.030Z,62.52
2023-03-06T12:13:33.710Z,62.07
2023-03-06T12:16:27.502Z,63.06
2023-03-06T12:18:54.303Z,64.44
2023-03-06T12:21:45.554Z,64.61
2023-03-06T12:24:30.511Z,65.51
2023-03-06T12:26:57.213Z,66.33
2023-03-06T12:29:36.829Z,66.03
2023-03-06T12:32:03.638Z,66.94
2023-03-06T12:34:45.588Z,66.41
2023-03-06T12:37:17.548Z,67.30
2023-03-06T12:39:48.444Z,67.52
2023-03-06T12:42:33.986Z,68.56
2023-03-06T12:45:15.507Z,68.77
2023-03-06T12:47:43.508Z,69.78
2023-03-06T12:50:19.658Z,69.56
2023-03-06T12:52:46.448Z,69.53
2023-03-06T12:55:15.895Z,70.73
2023-03-06T12:57:42.671Z,70.77
2023-03-06T13:00:34.533Z,71.61
2023-03-06T13:03:04.201Z,71.32
2023-03-06T13:05:52.583Z,71.20
2023-03-06T13:08:56.957Z,70.59
2023-03-06T13:11:28.453Z,72.16
2023-03-06T13:13:55.249Z,71.92
2023-03-06T13:16:29.020Z,71.46
2023-03-06T13:19:01.392Z,72.18
2023-03-06T13:21:55.657Z,71.90
2023-03-06T13:24:37.360Z,71.49
2023-03-06T13:27:09.465Z,72.05
2023-03-06T13:29:36.179Z,72.00
2023-03-06T13:32:03.146Z,72.19
2023-03-06T13:34:50.190Z,71.75
2023-03-06T13:37:17.042Z,72.70
2023-03-06T13:39:55.774Z,72.86
2023-03-06T13:42:26.471Z,73.22
2023-03-06T13:44:53.309Z,72.51
2023-03-06T13:47:21.804Z,72.67
2023-03-06T13:49:48.614Z,72.78
2023-03-06T13:52:23.154Z,72.73
2023-03-06T13:55:08.081Z,72.41
2023-03-06T13:57:57.480Z,73.30
2023-03-06T14:00:58.078Z,72.86
2023-03-06T14:03:49.863Z,73.03
2023-03-06T14:06:35.271Z,73.52
2023-03-06T14:09:05.595Z,72.59
2023-03-06T14:11:32.491Z,72.21
2023-03-06T14:13:59.510Z,72.84
2023-03-06T14:16:37.545Z,72.73
2023-03-06T14:19:15.750Z,73.41
2023-03-06T14:21:47.571Z,73.32
2023-03-06T14:24:19.028Z,73.71
2023-03-06T14:26:52.106Z,74.35
2023-03-06T14:29:23.580Z,75.29
2023-03-06T14:31:51.770Z,76.01
2023-03-06T14:34:21.846Z,76.61
2023-03-06T14:36:50.290Z,76.75
2023-03-06T14:39:34.138Z,77.98
2023-03-06T14:42:21.151Z,78.45
2023-03-06T14:44:48.842Z,78.89
2023-03-06T14:47:35.042Z,79.33
2023-03-06T14:50:24.472Z,79.50
2023-03-06T14:52:56.289Z,79.65
2023-03-06T14:55:24.763Z,79.63
2023-03-06T14:58:11.072Z,80.42
2023-03-06T15:00:40.931Z,81.24
2023-03-06T15:03:12.980Z,82.38
2023-03-06T15:05:39.810Z,82.99
2023-03-06T15:08:07.469Z,83.17
2023-03-06T15:10:34.936Z,83.47
2023-03-06T15:13:28.959Z,84.01
2023-03-06T15:16:04.686Z,84.13
2023-03-06T15:18:39.217Z,84.67
2023-03-06T15:21:10.909Z,85.71
2023-03-06T15:23:42.093Z,85.54
2023-03-06T15:26:29.524Z,87.05
2023-03-06T15:29:10.359Z,87.86
2023-03-06T15:31:42.139Z,88.43
2023-03-06T15:34:11.627Z,88.66
2023-03-06T15:36:39.115Z,89.28
2023-03-06T15:39:27.609Z,89.63
2023-03-06T15:42:20.429Z,89.65
2023-03-06T15:44:54.289Z,89.33
2023-03-06T15:47:21.714Z,90.32
2023-03-06T15:49:53.395Z,89.91
2023-03-06T15:52:23.293Z,89.92
2023-03-06T15:54:50.187Z,89.71
2023-03-06T15:57:25.322Z,89.54
2023-03-06T15:59:52.133Z,89.36
2023-03-06T16:02:20.473Z,89.84
2023-03-06T16:04:47.414Z,90.22
2023-03-06T16:07:14.296Z,90.26
2023-03-06T16:09:41.862Z,90.81
2023-03-06T16:12:26.493Z,90.91
2023-03-06T16:14:53.346Z,91.43
2023-03-06T16:17:20.142Z,92.18
2023-03-06T16:19:46.935Z,92.35
2023-03-06T16:22:13.968Z,93.10
2023-03-06T16:24:42.079Z,92.75
2023-03-06T16:27:15.336Z,93.00
2023-03-06T16:29:42.176Z,93.59
2023-03-06T16:32:10.355Z,94.03
2023-03-06T16:34:37.165Z,93.95
2023-03-06T16:37:03.930Z,94.28
2023-03-06T16:39:30.851Z,94.65
2023-03-06T16:41:57.702Z,95.33
2023-03-06T16:44:24.525Z,95.67
2023-03-06T16:46:51.317Z,96.33
2023-03-06T16:49:20.080Z,96.41
2023-03-06T16:51:47.094Z,96.28
2023-03-06T16:54:14.133Z,96.72
2023-03-06T16:56:41.092Z,97.07
2023-03-06T16:59:08.028Z,96.87
2023-03-06T17:01:34.978Z,97.00
2023-03-06T17:04:01.985Z,97.39
2023-03-06T17:06:30.287Z,97.41
2023-03-06T17:08:58.200Z,97.66
2023-03-06T17:11:25.206Z,97.80
2023-03-06T17:13:52.028Z,97.78
2023-03-06T17:16:18.931Z,97.75
2023-03-06T17:18:46.274Z,98.42
2023-03-06T17:21:15.651Z,98.38
2023-03-06T17:23:42.746Z,98.21
2023-03-06T17:26:18.889Z,98.27
2023-03-06T17:28:45.994Z,97.97
2023-03-06T17:31:16.069Z,98.08
2023-03-06T17:33:43.020Z,98.20
2023-03-06T17:36:10.189Z,98.46
2023-03-06T17:38:37.078Z,98.36
2023-03-06T17:41:07.608Z,98.00
2023-03-06T17:43:34.338Z,98.16
2023-03-06T17:46:11.004Z,98.03
2023-03-06T17:48:38.009Z,98.59
2023-03-06T17:51:05.138Z,98.84
2023-03-06T17:53:32.055Z,98.73
2023-03-06T17:55:59.083Z,98.80
2023-03-06T17:58:26.774Z,98.78
2023-03-06T18:00:53.689Z,98.68
2023-03-06T18:03:20.601Z,98.90
2023-03-06T18:05:47.388Z,98.47
2023-03-06T18:08:14.311Z,99.02
2023-03-06T18:10:41.876Z,98.61
2023-03-06T18:13:08.896Z,98.25
2023-03-06T18:15:39.503Z,97.44
2023-03-06T18:18:06.614Z,97.30
2023-03-06T18:20:33.438Z,97.11
2023-03-06T18:23:03.616Z,96.91
2023-03-06T18:25:31.711Z,96.28
2023-03-06T18:27:58.694Z,95.91
2023-03-06T18:30:25.603Z,96.05
2023-03-06T18:32:52.432Z,96.08
2023-03-06T18:35:19.199Z,96.23
2023-03-06T18:37:45.983Z,96.06
2023-03-06T18:40:13.569Z,96.35
2023-03-06T18:42:40.369Z,96.39
2023-03-06T18:45:07.968Z,96.66
2023-03-06T18:47:34.833Z,96.54
2023-03-06T18:50:02.894Z,96.64
2023-03-06T18:52:29.705Z,97.06
2023-03-06T18:54:56.523Z,96.74
2023-03-06T18:57:23.405Z,96.65
2023-03-06T18:59:50.232Z,96.48
2023-03-06T19:02:17.127Z,96.55
2023-03-06T19:04:43.912Z,96.80
2023-03-06T19:07:11.256Z,97.40
2023-03-06T19:09:38.116Z,97.38
2023-03-06T19:12:05.756Z,97.31
2023-03-06T19:14:32.694Z,97.25
2023-03-06T19:16:59.537Z,97.11
2023-03-06T19:19:26.963Z,96.94
2023-03-06T19:21:53.894Z,96.65
2023-03-06T19:24:20.632Z,96.73
2023-03-06T19:26:47.481Z,97.03
2023-03-06T19:29:14.265Z,96.58
2023-03-06T19:31:41.296Z,96.66
2023-03-06T19:34:08.339Z,96.34
2023-03-06T19:36:35.216Z,96.97
2023-03-06T19:39:03.310Z,96.57
2023-03-06T19:41:30.097Z,96.88
2023-03-06T19:43:58.518Z,96.97
2023-03-06T19:46:25.557Z,97.74
2023-03-06T19:49:00.199Z,97.30
2023-03-06T19:51:27.419Z,97.18
2023-03-06T19:53:54.236Z,97.13
2023-03-06T19:56:23.260Z,96.80
2023-03-06T19:58:50.099Z,96.61
2023-03-06T20:01:18.301Z,96.76
2023-03-06T20:03:45.099Z,96.74
2023-03-06T20:06:16.494Z,96.74
2023-03-06T20:08:43.820Z,96.80
2023-03-06T20:11:26.896Z,96.94
2023-03-06T20:13:54.101Z,96.70
2023-03-06T20:16:20.907Z,96.56
2023-03-06T20:18:47.701Z,96.61
2023-03-06T20:21:14.750Z,96.63
2023-03-06T20:23:41.808Z,96.53
2023-03-06T20:26:10.406Z,96.64
2023-03-06T20:28:39.171Z,96.56
2023-03-06T20:31:10.287Z,96.82
2023-03-06T20:33:37.169Z,96.47
2023-03-06T20:36:04.408Z,97.04
2023-03-06T20:38:31.265Z,97.13
2023-03-06T20:40:59.778Z,97.27
2023-03-06T20:43:26.593Z,96.80
2023-03-06T20:46:00.689Z,96.85
2023-03-06T20:48:27.550Z,96.97
2023-03-06T20:51:04.919Z,96.94
2023-03-06T20:53:32.111Z,96.42
2023-03-06T20:55:58.888Z,96.31
2023-03-06T20:58:28.696Z,96.70
2023-03-06T21:00:56.110Z,96.59
2023-03-06T21:03:22.889Z,96.87
2023-03-06T21:05:49.836Z,96.68
2023-03-06T21:08:16.715Z,96.60
2023-03-06T21:10:44.837Z,96.50
2023-03-06T21:13:11.704Z,96.51
2023-03-06T21:15:39.544Z,96.78
2023-03-06T21:18:06.449Z,97.01
2023-03-06T21:20:33.832Z,96.48
2023-03-06T21:23:01.809Z,96.61
2023-03-06T21:25:29.157Z,96.79
2023-03-06T21:27:56.117Z,96.90
2023-03-06T21:30:22.890Z,96.83
2023-03-06T21:32:51.098Z,96.61
2023-03-06T21:35:18.682Z,96.59
2023-03-06T21:37:46.023Z,96.29
2023-03-06T21:40:14.207Z,96.49
2023-03-06T21:42:41.560Z,96.51
2023-03-06T21:45:08.860Z,96.31
2023-03-06T21:47:38.998Z,96.56
2023-03-06T21:50:07.423Z,96.78
2023-03-06T21:52:34.374Z,96.58
2023-03-06T21:55:01.155Z,97.01
2023-03-06T21:57:28.019Z,96.96
2023-03-06T21:59:54.878Z,97.17
2023-03-06T22:02:21.701Z,97.32
2023-03-06T22:04:52.670Z,97.17
2023-03-06T22:07:20.293Z,97.11
2023-03-06T22:09:47.316Z,96.72
2023-03-06T22:12:14.551Z,96.74
2023-03-06T22:14:43.651Z,96.93
2023-03-06T22:17:10.428Z,97.05
2023-03-06T22:19:37.323Z,97.17
2023-03-06T22:22:04.537Z,96.74
2023-03-06T22:24:34.001Z,96.84
2023-03-06T22:27:00.858Z,96.50
2023-03-06T22:29:27.676Z,96.73
2023-03-06T22:31:54.527Z,96.50
2023-03-06T22:34:21.325Z,96.07
2023-03-06T22:36:48.364Z,96.28
2023-03-06T22:39:15.226Z,96.45
2023-03-06T22:41:42.060Z,96.51
2023-03-06T22:44:09.992Z,96.96
2023-03-06T22:46:36.827Z,96.81
2023-03-06T22:49:03.860Z,96.84
2023-03-06T22:51:30.938Z,96.63
2023-03-06T22:53:58.250Z,96.91
2023-03-06T22:56:25.082Z,96.85
2023-03-06T22:58:52.082Z,96.47
2023-03-06T23:01:20.742Z,96.61
2023-03-06T23:03:49.240Z,96.75
2023-03-06T23:06:22.805Z,96.72
2023-03-06T23:08:51.387Z,97.03
2023-03-06T23:11:19.613Z,97.07
2023-03-06T23:13:46.533Z,97.28
2023-03-06T23:16:13.383Z,96.75
2023-03-06T23:18:40.437Z,97.10
2023-03-06T23:21:11.549Z,96.69
2023-03-06T23:23:39.025Z,96.74
2023-03-06T23:26:06.669Z,96.62
2023-03-06T23:28:33.653Z,96.43
2023-03-06T23:31:00.946Z,96.28
2023-03-06T23:33:27.849Z,96.27
2023-03-06T23:35:54.739Z,96.50
2023-03-06T23:38:21.643Z,96.48
2023-03-06T23:40:49.628Z,96.36
2023-03-06T23:43:16.488Z,96.32
2023-03-06T23:45:52.716Z,96.62
2023-03-06T23:48:19.635Z,96.89
2023-03-06T23:50:46.402Z,96.56
2023-03-06T23:53:13.468Z,96.73
2023-03-06T23:55:47.224Z,97.02
2023-03-06T23:58:16.370Z,97.12
